createdAt,value
2018-09-03T00:00:15.665Z,95.10
2018-09-03T00:02:44.476Z,95.10
2018-09-03T00:05:13.206Z,95.20
2018-09-03T00:07:41.926Z,94.90
2018-09-03T00:10:10.668Z,94.90
2018-09-03T00:12:39.443Z,94.90
2018-09-03T00:15:08.215Z,94.90
2018-09-03T00:17:39.066Z,94.90
2018-09-03T00:20:07.880Z,94.80
2018-09-03T00:22:36.640Z,94.80
2018-09-03T00:25:05.907Z,94.80
2018-09-03T00:27:34.624Z,94.70
2018-09-03T00:30:03.466Z,94.80
2018-09-03T00:32:37.365Z,94.80
2018-09-03T00:37:15.490Z,94.70
2018-09-03T00:39:49.325Z,94.60
2018-09-03T00:42:23.403Z,94.70
2018-09-03T00:44:57.326Z,94.80
2018-09-03T00:47:26.014Z,94.90
2018-09-03T00:49:54.728Z,95.10
2018-09-03T00:52:23.594Z,95.20
2018-09-03T00:54:52.315Z,95.10
2018-09-03T00:57:20.984Z,95.10
2018-09-03T00:59:49.664Z,95.20
2018-09-03T01:02:18.390Z,95.20
2018-09-03T01:04:47.131Z,95.20
2018-09-03T01:07:15.807Z,95.20
2018-09-03T01:09:44.566Z,95.10
2018-09-03T01:12:13.396Z,94.90
2018-09-03T01:14:42.084Z,94.90
2018-09-03T01:17:10.860Z,95.00
2018-09-03T01:19:39.545Z,94.90
2018-09-03T01:22:08.266Z,94.80
2018-09-03T01:24:37.144Z,94.80
2018-09-03T01:27:06.172Z,94.90
2018-09-03T01:29:34.921Z,94.90
2018-09-03T01:32:03.643Z,95.00
2018-09-03T01:34:32.327Z,95.00
2018-09-03T01:37:01.032Z,94.90
2018-09-03T01:39:29.712Z,94.90
2018-09-03T01:41:58.416Z,95.00
2018-09-03T01:44:27.133Z,94.80
2018-09-03T01:46:55.756Z,94.60
2018-09-03T01:49:24.472Z,94.70
2018-09-03T01:51:53.155Z,94.80
2018-09-03T01:54:21.797Z,95.10
2018-09-03T01:56:50.435Z,95.10
2018-09-03T01:59:19.057Z,95.20
2018-09-03T02:01:47.864Z,95.30
2018-09-03T02:04:16.547Z,95.20
2018-09-03T02:06:45.340Z,95.20
2018-09-03T02:09:14.012Z,95.10
2018-09-03T02:11:42.770Z,94.80
2018-09-03T02:14:11.412Z,94.80
2018-09-03T02:16:40.300Z,94.80
2018-09-03T02:19:09.472Z,94.70
2018-09-03T02:21:38.124Z,95.10
2018-09-03T02:24:06.816Z,95.10
2018-09-03T02:26:35.522Z,95.20
2018-09-03T02:29:04.315Z,95.30
2018-09-03T02:31:33.035Z,95.30
2018-09-03T02:34:01.748Z,95.40
2018-09-03T02:36:30.353Z,95.50
2018-09-03T02:38:59.201Z,95.60
2018-09-03T02:41:28.236Z,95.50
2018-09-03T02:43:57.764Z,95.50
2018-09-03T02:46:26.641Z,95.40
2018-09-03T02:48:55.680Z,95.20
2018-09-03T02:51:24.373Z,95.20
2018-09-03T02:53:53.393Z,95.10
2018-09-03T02:56:22.194Z,95.20
2018-09-03T02:58:50.809Z,95.20
2018-09-03T03:01:19.876Z,95.40
2018-09-03T03:03:48.769Z,95.50
2018-09-03T03:06:17.533Z,95.70
2018-09-03T03:08:46.467Z,95.70
2018-09-03T03:11:15.352Z,95.80
2018-09-03T03:13:44.321Z,95.90
2018-09-03T03:16:13.049Z,95.80
2018-09-03T03:18:41.776Z,95.80
2018-09-03T03:21:10.420Z,95.90
2018-09-03T03:23:39.053Z,95.90
2018-09-03T03:26:07.744Z,95.90
2018-09-03T03:28:36.500Z,95.90
2018-09-03T03:31:05.490Z,95.90
2018-09-03T03:33:34.127Z,95.90
2018-09-03T03:36:02.900Z,96.00
2018-09-03T03:38:31.782Z,95.90
2018-09-03T03:41:00.435Z,95.90
2018-09-03T03:43:29.085Z,95.90
2018-09-03T03:45:57.807Z,96.00
2018-09-03T03:48:26.521Z,96.10
2018-09-03T03:50:55.189Z,96.00
2018-09-03T03:53:23.868Z,96.10
2018-09-03T03:55:53.597Z,96.00
2018-09-03T03:58:22.234Z,96.00
2018-09-03T04:00:51.174Z,96.00
2018-09-03T04:03:19.857Z,96.20
2018-09-03T04:05:48.643Z,96.20
2018-09-03T04:08:17.296Z,96.20
2018-09-03T04:10:45.925Z,96.10
2018-09-03T04:13:14.546Z,96.00
2018-09-03T04:15:43.216Z,96.00
2018-09-03T04:18:11.860Z,95.90
2018-09-03T04:20:40.521Z,95.80
2018-09-03T04:23:09.421Z,95.80
2018-09-03T04:25:38.042Z,95.60
2018-09-03T04:28:07.049Z,95.60
2018-09-03T04:30:35.791Z,95.50
2018-09-03T04:33:04.427Z,95.50
2018-09-03T04:35:33.077Z,95.40
2018-09-03T04:38:02.008Z,95.40
2018-09-03T04:40:30.665Z,95.50
2018-09-03T04:42:59.525Z,95.40
2018-09-03T04:45:28.219Z,95.50
2018-09-03T04:47:57.369Z,95.90
2018-09-03T04:50:26.186Z,95.90
2018-09-03T04:52:54.900Z,96.00
2018-09-03T04:55:24.147Z,96.00
2018-09-03T04:57:52.711Z,96.00
2018-09-03T05:00:21.693Z,96.20
2018-09-03T05:02:50.528Z,96.30
2018-09-03T05:05:19.299Z,96.30
2018-09-03T05:07:48.235Z,96.20
2018-09-03T05:10:16.993Z,96.20
2018-09-03T05:12:46.383Z,96.20
2018-09-03T05:15:15.460Z,96.10
2018-09-03T05:17:44.496Z,96.10
2018-09-03T05:20:13.053Z,96.10
2018-09-03T05:22:41.865Z,96.10
2018-09-03T05:25:10.532Z,96.10
2018-09-03T05:27:39.500Z,96.00
2018-09-03T05:30:08.930Z,96.00
2018-09-03T05:32:38.370Z,95.90
2018-09-03T05:35:07.340Z,95.90
2018-09-03T05:37:36.680Z,95.50
2018-09-03T05:40:05.529Z,95.40
2018-09-03T05:42:34.368Z,95.40
2018-09-03T05:45:03.197Z,95.60
2018-09-03T05:47:32.128Z,95.80
2018-09-03T05:50:00.775Z,95.70
2018-09-03T05:52:29.433Z,95.60
2018-09-03T05:54:58.343Z,95.50
2018-09-03T05:57:27.724Z,95.60
2018-09-03T05:59:56.424Z,95.40
2018-09-03T06:02:25.461Z,95.50
2018-09-03T06:04:54.142Z,95.20
2018-09-03T06:07:22.903Z,95.10
2018-09-03T06:09:51.933Z,94.90
2018-09-03T06:12:20.557Z,95.00
2018-09-03T06:14:49.782Z,95.10
2018-09-03T06:17:18.797Z,94.90
2018-09-03T06:19:47.573Z,94.60
2018-09-03T06:22:16.258Z,94.50
2018-09-03T06:24:44.956Z,94.00
2018-09-03T06:27:13.611Z,93.90
2018-09-03T06:29:42.839Z,94.10
2018-09-03T06:32:11.866Z,94.00
2018-09-03T06:34:41.006Z,94.00
2018-09-03T06:37:09.797Z,94.10
2018-09-03T06:39:38.569Z,94.40
2018-09-03T06:42:07.829Z,94.30
2018-09-03T06:44:36.468Z,94.20
2018-09-03T06:47:05.430Z,94.30
2018-09-03T06:49:34.217Z,94.30
2018-09-03T06:52:03.101Z,94.00
2018-09-03T06:54:32.364Z,94.20
2018-09-03T06:57:01.356Z,94.30
2018-09-03T06:59:30.374Z,94.50
2018-09-03T07:01:58.973Z,94.60
2018-09-03T07:04:27.705Z,94.80
2018-09-03T07:06:56.362Z,94.20
2018-09-03T07:09:25.036Z,93.90
2018-09-03T07:11:53.784Z,94.10
2018-09-03T07:14:22.504Z,94.30
2018-09-03T07:16:51.150Z,94.40
2018-09-03T07:19:19.877Z,94.60
2018-09-03T07:21:49.045Z,94.30
2018-09-03T07:24:17.809Z,94.00
2018-09-03T07:26:46.455Z,94.10
2018-09-03T07:29:15.340Z,94.30
2018-09-03T07:31:44.261Z,94.20
2018-09-03T07:34:13.417Z,93.80
2018-09-03T07:36:42.390Z,93.90
2018-09-03T07:39:11.111Z,93.80
2018-09-03T07:41:40.874Z,94.10
2018-09-03T07:44:09.622Z,93.60
2018-09-03T07:46:38.437Z,93.80
2018-09-03T07:49:08.312Z,93.80
2018-09-03T07:51:37.088Z,94.00
2018-09-03T07:54:05.704Z,93.90
2018-09-03T07:56:34.528Z,93.70
2018-09-03T07:59:03.384Z,93.90
2018-09-03T08:01:32.151Z,93.30
2018-09-03T08:04:01.165Z,93.20
2018-09-03T08:06:29.921Z,93.20
2018-09-03T08:08:58.753Z,93.60
2018-09-03T08:11:27.369Z,93.20
2018-09-03T08:13:56.245Z,92.70
2018-09-03T08:16:24.931Z,91.60
2018-09-03T08:18:53.681Z,90.60
2018-09-03T08:21:22.476Z,90.40
2018-09-03T08:23:51.104Z,91.00
2018-09-03T08:26:20.179Z,90.80
2018-09-03T08:28:49.817Z,89.70
2018-09-03T08:31:19.006Z,89.10
2018-09-03T08:33:47.569Z,88.60
2018-09-03T08:36:16.506Z,89.20
2018-09-03T08:38:45.144Z,87.70
2018-09-03T08:41:13.841Z,87.30
2018-09-03T08:43:42.505Z,85.70
2018-09-03T08:46:11.651Z,86.30
2018-09-03T08:48:45.265Z,85.10
2018-09-03T08:51:14.436Z,84.90
2018-09-03T08:53:43.177Z,85.60
2018-09-03T08:56:11.921Z,85.90
2018-09-03T08:58:40.875Z,85.30
2018-09-03T09:01:09.663Z,85.30
2018-09-03T09:03:43.090Z,84.50
2018-09-03T09:06:12.000Z,84.40
2018-09-03T09:08:40.877Z,84.20
2018-09-03T09:11:10.400Z,82.30
2018-09-03T09:13:39.665Z,82.60
2018-09-03T09:16:08.441Z,82.60
2018-09-03T09:18:37.497Z,83.70
2018-09-03T09:21:06.146Z,82.40
2018-09-03T09:23:34.796Z,82.90
2018-09-03T09:26:03.368Z,81.60
2018-09-03T09:28:32.651Z,78.40
2018-09-03T09:31:01.700Z,79.40
2018-09-03T09:33:30.334Z,79.30
2018-09-03T09:35:58.925Z,76.50
2018-09-03T09:38:27.730Z,76.90
2018-09-03T09:40:56.461Z,78.00
2018-09-03T09:43:25.167Z,78.10
2018-09-03T09:45:53.835Z,77.40
2018-09-03T09:48:22.549Z,78.60
2018-09-03T09:50:51.469Z,77.10
2018-09-03T09:53:20.095Z,75.70
2018-09-03T09:55:48.680Z,77.10
2018-09-03T09:58:17.566Z,77.40
2018-09-03T10:00:51.508Z,78.10
2018-09-03T10:03:20.193Z,76.20
2018-09-03T10:05:48.873Z,76.90
2018-09-03T10:08:17.536Z,77.10
2018-09-03T10:10:46.260Z,78.40
2018-09-03T10:13:14.951Z,78.90
2018-09-03T10:15:43.570Z,78.60
2018-09-03T10:18:12.217Z,78.20
2018-09-03T10:20:40.860Z,77.30
2018-09-03T10:23:09.494Z,75.30
2018-09-03T10:25:38.160Z,76.80
2018-09-03T10:28:06.753Z,77.10
2018-09-03T10:30:35.383Z,77.80
2018-09-03T10:33:03.984Z,77.20
2018-09-03T10:35:32.635Z,77.20
2018-09-03T10:38:01.292Z,77.80
2018-09-03T10:40:29.953Z,78.30
2018-09-03T10:42:58.725Z,78.60
2018-09-03T10:45:27.417Z,78.10
2018-09-03T10:47:56.173Z,77.30
2018-09-03T10:50:24.865Z,75.70
2018-09-03T10:52:53.484Z,74.60
2018-09-03T10:55:22.111Z,73.80
2018-09-03T10:57:50.785Z,72.60
2018-09-03T11:00:19.496Z,71.10
2018-09-03T11:02:48.133Z,70.10
2018-09-03T11:05:16.833Z,70.30
2018-09-03T11:07:45.452Z,71.00
2018-09-03T11:10:14.132Z,70.30
2018-09-03T11:12:42.760Z,70.30
2018-09-03T11:15:11.424Z,71.10
2018-09-03T11:17:40.124Z,71.10
2018-09-03T11:20:11.851Z,70.20
2018-09-03T11:22:40.452Z,69.80
2018-09-03T11:25:09.171Z,69.50
2018-09-03T11:27:37.916Z,67.40
2018-09-03T11:30:07.520Z,66.80
2018-09-03T11:32:36.136Z,66.20
2018-09-03T11:35:04.902Z,68.30
2018-09-03T11:37:33.549Z,68.90
2018-09-03T11:40:02.191Z,70.80
2018-09-03T11:42:30.878Z,71.10
2018-09-03T11:44:59.519Z,72.50
2018-09-03T11:47:28.156Z,73.20
2018-09-03T11:49:56.893Z,72.60
2018-09-03T11:52:25.602Z,72.60
2018-09-03T11:54:54.320Z,72.30
2018-09-03T11:57:23.022Z,73.10
2018-09-03T11:59:51.710Z,70.30
2018-09-03T12:02:20.364Z,70.10
2018-09-03T12:04:49.080Z,69.10
2018-09-03T12:07:17.717Z,68.90
2018-09-03T12:09:46.401Z,70.20
2018-09-03T12:12:15.079Z,72.40
2018-09-03T12:14:45.989Z,72.10
2018-09-03T12:17:14.661Z,71.00
2018-09-03T12:19:43.273Z,70.70
2018-09-03T12:22:11.953Z,68.50
2018-09-03T12:24:40.634Z,68.30
2018-09-03T12:27:09.277Z,68.00
2018-09-03T12:29:37.944Z,65.00
2018-09-03T12:32:06.682Z,65.40
2018-09-03T12:34:35.365Z,65.00
2018-09-03T12:37:04.088Z,64.90
2018-09-03T12:39:32.761Z,63.70
2018-09-03T12:42:01.361Z,63.40
2018-09-03T12:44:29.967Z,63.00
2018-09-03T12:46:58.561Z,62.90
2018-09-03T12:49:27.215Z,64.30
2018-09-03T12:51:55.897Z,62.60
2018-09-03T12:54:24.468Z,63.70
2018-09-03T12:56:53.017Z,64.40
2018-09-03T12:59:22.860Z,65.30
2018-09-03T13:01:51.558Z,64.30
2018-09-03T13:04:20.314Z,65.60
2018-09-03T13:06:48.879Z,64.60
2018-09-03T13:09:17.532Z,65.40
2018-09-03T13:11:46.180Z,67.00
2018-09-03T13:14:14.855Z,66.50
2018-09-03T13:16:43.539Z,65.20
2018-09-03T13:19:12.233Z,66.40
2018-09-03T13:21:40.852Z,65.80
2018-09-03T13:24:09.457Z,67.70
2018-09-03T13:26:38.096Z,67.30
2018-09-03T13:29:06.757Z,66.40
2018-09-03T13:31:35.441Z,66.60
2018-09-03T13:34:04.065Z,67.30
2018-09-03T13:36:32.784Z,67.20
2018-09-03T13:39:01.403Z,67.00
2018-09-03T13:41:30.121Z,66.70
2018-09-03T13:43:58.838Z,65.90
2018-09-03T13:46:27.553Z,65.20
2018-09-03T13:48:56.209Z,64.40
2018-09-03T13:51:24.801Z,64.00
2018-09-03T13:53:53.469Z,63.60
2018-09-03T13:56:22.116Z,63.10
2018-09-03T13:58:50.810Z,62.10
2018-09-03T14:01:19.501Z,62.20
2018-09-03T14:03:48.150Z,61.60
2018-09-03T14:06:16.902Z,61.50
2018-09-03T14:08:45.589Z,62.50
2018-09-03T14:11:14.268Z,63.00
2018-09-03T14:13:44.101Z,61.50
2018-09-03T14:16:12.813Z,61.90
2018-09-03T14:18:41.478Z,60.50
2018-09-03T14:21:10.205Z,59.90
2018-09-03T14:23:38.864Z,60.60
2018-09-03T14:26:07.558Z,59.60
2018-09-03T14:28:36.320Z,59.30
2018-09-03T14:31:05.081Z,59.80
2018-09-03T14:33:33.751Z,61.60
2018-09-03T14:36:02.431Z,63.70
2018-09-03T14:38:31.125Z,64.20
2018-09-03T14:40:59.796Z,62.60
2018-09-03T14:43:28.488Z,59.20
2018-09-03T14:45:57.132Z,55.70
2018-09-03T14:48:26.819Z,53.10
2018-09-03T14:50:55.501Z,51.30
2018-09-03T14:53:24.157Z,50.30
2018-09-03T14:55:52.760Z,49.20
2018-09-03T14:58:21.308Z,48.80
2018-09-03T15:00:49.909Z,48.50
2018-09-03T15:03:18.557Z,48.30
2018-09-03T15:05:47.184Z,49.40
2018-09-03T15:08:15.969Z,49.80
2018-09-03T15:10:44.592Z,48.40
2018-09-03T15:13:13.314Z,47.40
2018-09-03T15:15:41.908Z,47.20
2018-09-03T15:18:10.524Z,46.70
2018-09-03T15:20:39.196Z,46.00
2018-09-03T15:23:07.787Z,47.20
2018-09-03T15:25:36.368Z,49.80
2018-09-03T15:28:05.297Z,51.60
2018-09-03T15:30:33.936Z,51.70
2018-09-03T15:33:02.614Z,50.80
2018-09-03T15:35:45.889Z,50.80
2018-09-03T15:38:14.564Z,52.70
2018-09-03T15:40:43.184Z,54.10
2018-09-03T15:43:11.894Z,55.30
2018-09-03T15:45:40.652Z,56.10
2018-09-03T15:48:09.343Z,56.40
2018-09-03T15:50:38.027Z,55.40
2018-09-03T15:53:06.689Z,54.50
2018-09-03T15:55:35.276Z,52.50
2018-09-03T15:58:03.953Z,52.60
2018-09-03T16:00:32.625Z,52.10
2018-09-03T16:03:01.292Z,52.70
2018-09-03T16:05:30.231Z,51.80
2018-09-03T16:07:58.930Z,52.50
2018-09-03T16:10:27.601Z,54.30
2018-09-03T16:12:56.224Z,53.20
2018-09-03T16:15:25.162Z,52.20
2018-09-03T16:17:54.269Z,49.70
2018-09-03T16:20:22.932Z,51.30
2018-09-03T16:22:51.577Z,51.60
2018-09-03T16:25:20.224Z,52.60
2018-09-03T16:27:48.969Z,52.70
2018-09-03T16:30:17.588Z,53.20
2018-09-03T16:32:46.217Z,54.10
2018-09-03T16:35:15.389Z,53.00
2018-09-03T16:37:58.880Z,52.70
2018-09-03T16:40:28.057Z,51.60
2018-09-03T16:42:56.833Z,50.00
2018-09-03T16:45:26.084Z,51.50
2018-09-03T16:47:55.545Z,51.80
2018-09-03T16:50:24.169Z,51.60
2018-09-03T16:52:52.905Z,52.10
2018-09-03T16:55:22.236Z,54.00
2018-09-03T16:57:50.821Z,56.80
2018-09-03T17:00:19.505Z,58.50
2018-09-03T17:02:48.141Z,59.10
2018-09-03T17:05:16.785Z,60.20
2018-09-03T17:07:45.524Z,60.30
2018-09-03T17:10:14.188Z,60.20
2018-09-03T17:12:43.357Z,61.20
2018-09-03T17:15:12.138Z,62.90
2018-09-03T17:17:41.149Z,63.50
2018-09-03T17:20:10.009Z,64.30
2018-09-03T17:22:38.860Z,64.30
2018-09-03T17:25:08.054Z,64.50
2018-09-03T17:27:36.831Z,65.50
2018-09-03T17:30:06.002Z,66.40
2018-09-03T17:32:34.641Z,66.50
2018-09-03T17:35:03.401Z,67.00
2018-09-03T17:37:32.084Z,67.60
2018-09-03T17:40:00.737Z,69.30
2018-09-03T17:42:29.739Z,71.20
2018-09-03T17:44:58.534Z,72.80
2018-09-03T17:47:27.310Z,73.90
2018-09-03T17:50:02.685Z,74.90
2018-09-03T17:52:31.333Z,75.40
2018-09-03T17:55:00.054Z,76.40
2018-09-03T17:57:28.956Z,76.80
2018-09-03T17:59:57.696Z,77.20
2018-09-03T18:02:26.591Z,77.70
2018-09-03T18:04:55.266Z,78.40
2018-09-03T18:07:24.549Z,78.90
2018-09-03T18:09:53.708Z,79.40
2018-09-03T18:12:22.349Z,79.40
2018-09-03T18:14:51.034Z,79.60
2018-09-03T18:17:19.708Z,79.70
2018-09-03T18:19:48.378Z,80.00
2018-09-03T18:22:17.064Z,80.50
2018-09-03T18:24:45.704Z,80.70
2018-09-03T18:27:14.370Z,81.00
2018-09-03T18:29:43.146Z,81.30
2018-09-03T18:32:11.875Z,81.60
2018-09-03T18:34:40.564Z,82.00
2018-09-03T18:37:09.483Z,82.20
2018-09-03T18:39:38.473Z,82.30
2018-09-03T18:42:07.173Z,82.40
2018-09-03T18:44:37.045Z,82.60
2018-09-03T18:47:05.785Z,82.50
2018-09-03T18:49:34.507Z,82.70
2018-09-03T18:52:03.926Z,82.80
2018-09-03T18:54:32.561Z,83.10
2018-09-03T18:57:01.220Z,83.40
2018-09-03T18:59:29.857Z,83.60
2018-09-03T19:01:58.688Z,83.90
2018-09-03T19:04:27.353Z,84.30
2018-09-03T19:06:56.050Z,84.50
2018-09-03T19:09:24.764Z,84.80
2018-09-03T19:11:53.410Z,85.30
2018-09-03T19:14:22.081Z,85.60
2018-09-03T19:16:50.805Z,85.90
2018-09-03T19:19:19.497Z,86.30
2018-09-03T19:21:51.568Z,86.40
2018-09-03T19:24:20.526Z,86.90
2018-09-03T19:26:49.565Z,87.10
2018-09-03T19:29:18.392Z,87.10
2018-09-03T19:31:47.308Z,87.10
2018-09-03T19:34:15.983Z,87.30
2018-09-03T19:36:44.803Z,87.20
2018-09-03T19:39:13.618Z,87.30
2018-09-03T19:41:42.641Z,87.30
2018-09-03T19:44:11.280Z,87.40
2018-09-03T19:46:39.915Z,87.40
2018-09-03T19:49:09.052Z,87.70
2018-09-03T19:51:38.265Z,87.60
2018-09-03T19:54:06.889Z,87.70
2018-09-03T19:56:35.709Z,87.60
2018-09-03T19:59:04.801Z,87.80
2018-09-03T20:01:33.613Z,87.90
2018-09-03T20:04:02.272Z,88.00
2018-09-03T20:06:30.926Z,88.20
2018-09-03T20:08:59.671Z,88.40
2018-09-03T20:11:29.604Z,88.60
2018-09-03T20:13:58.234Z,88.90
2018-09-03T20:16:26.869Z,89.20
2018-09-03T20:18:55.516Z,89.10
2018-09-03T20:21:24.292Z,89.10
2018-09-03T20:23:53.299Z,89.30
2018-09-03T20:26:22.288Z,89.30
2018-09-03T20:28:52.231Z,89.30
2018-09-03T20:31:20.880Z,89.40
2018-09-03T20:33:49.765Z,89.50
2018-09-03T20:36:18.447Z,89.50
2018-09-03T20:38:47.133Z,89.80
2018-09-03T20:41:15.769Z,89.90
2018-09-03T20:43:44.401Z,90.10
2018-09-03T20:46:13.041Z,90.20
2018-09-03T20:48:42.077Z,90.30
2018-09-03T20:51:10.745Z,90.30
2018-09-03T20:53:39.440Z,90.30
2018-09-03T20:56:08.128Z,90.50
2018-09-03T20:58:36.840Z,90.40
2018-09-03T21:01:05.704Z,90.50
2018-09-03T21:03:34.338Z,90.60
2018-09-03T21:06:03.073Z,90.60
2018-09-03T21:08:31.738Z,90.80
2018-09-03T21:11:00.375Z,90.90
2018-09-03T21:13:29.130Z,91.10
2018-09-03T21:15:57.833Z,91.30
2018-09-03T21:18:26.504Z,91.20
2018-09-03T21:20:55.229Z,91.10
2018-09-03T21:23:24.176Z,91.10
2018-09-03T21:25:53.144Z,91.20
2018-09-03T21:28:21.817Z,91.20
2018-09-03T21:30:50.484Z,91.20
2018-09-03T21:33:19.203Z,91.20
2018-09-03T21:35:47.872Z,91.20
2018-09-03T21:38:16.750Z,91.00
2018-09-03T21:40:45.457Z,91.00
2018-09-03T21:43:14.232Z,91.10
2018-09-03T21:45:42.904Z,91.00
2018-09-03T21:48:11.501Z,90.90
2018-09-03T21:50:40.157Z,91.00
2018-09-03T21:53:09.009Z,91.20
2018-09-03T21:55:37.672Z,91.10
2018-09-03T21:58:06.357Z,91.00
2018-09-03T22:00:35.064Z,91.00
2018-09-03T22:03:03.937Z,91.10
2018-09-03T22:05:32.505Z,91.20
2018-09-03T22:08:01.108Z,91.40
2018-09-03T22:10:29.966Z,91.40
2018-09-03T22:12:58.580Z,91.50
2018-09-03T22:15:27.253Z,91.60
2018-09-03T22:17:55.932Z,91.80
2018-09-03T22:20:24.862Z,91.80
2018-09-03T22:22:53.534Z,91.80
2018-09-03T22:25:22.284Z,91.70
2018-09-03T22:27:50.956Z,91.70
2018-09-03T22:30:19.815Z,91.70
2018-09-03T22:32:48.539Z,91.70
2018-09-03T22:35:17.220Z,91.70
2018-09-03T22:37:45.914Z,91.70
2018-09-03T22:40:14.692Z,91.80
2018-09-03T22:42:43.316Z,91.90
2018-09-03T22:45:12.040Z,91.90
2018-09-03T22:47:40.649Z,92.10
2018-09-03T22:50:09.376Z,92.40
2018-09-03T22:52:38.251Z,92.40
2018-09-03T22:55:07.130Z,92.50
2018-09-03T22:57:35.793Z,92.50
2018-09-03T23:00:04.710Z,92.60
2018-09-03T23:02:37.584Z,92.60
2018-09-03T23:05:06.383Z,92.60
2018-09-03T23:07:35.021Z,92.70
2018-09-03T23:10:03.765Z,92.80
2018-09-03T23:12:32.849Z,92.80
2018-09-03T23:15:01.520Z,92.80
2018-09-03T23:17:30.222Z,93.00
2018-09-03T23:19:58.853Z,93.20
2018-09-03T23:22:27.549Z,93.20
2018-09-03T23:24:56.729Z,93.20
2018-09-03T23:27:25.414Z,93.30
2018-09-03T23:29:54.096Z,93.60
2018-09-03T23:32:22.960Z,93.40
2018-09-03T23:34:51.661Z,93.40
2018-09-03T23:37:20.385Z,93.30
2018-09-03T23:39:49.245Z,93.40
2018-09-03T23:42:17.864Z,93.50
2018-09-03T23:44:46.574Z,93.40
2018-09-03T23:47:15.233Z,93.50
2018-09-03T23:49:43.880Z,93.60
2018-09-03T23:52:12.790Z,93.50
2018-09-03T23:54:41.792Z,93.70
2018-09-03T23:57:10.432Z,93.60
2018-09-03T23:59:39.386Z,93.50
